Time;durP1;ratioP1;P1;durP2;ratioP2;P2;SDS_P1;SDS_P2;PMS_P1;PMS_P2;Temp;Humidity;BMP_temperature;BMP_pressure;BME280_temperature;BME280_humidity;BME280_pressure;Samples;Min_cycle;Max_cycle;Signal;HPM_P1;HPM_P2
2021/11/29 00:00:46;;;;;;;0.40;0.40;;;1.60;99.90;;;;;;5034712;28;20474;-80
2021/11/29 00:03:15;;;;;;;0.30;0.30;;;1.60;99.90;;;;;;5034546;28;20450;-80
2021/11/29 00:05:41;;;;;;;0.30;0.30;;;1.60;99.90;;;;;;5034479;28;20797;-79
2021/11/29 00:08:08;;;;;;;0.50;0.50;;;1.60;99.90;;;;;;5034070;28;20794;-79
2021/11/29 00:10:37;;;;;;;0.30;0.30;;;1.60;99.90;;;;;;5034005;28;20459;-80
2021/11/29 00:13:04;;;;;;;0.30;0.30;;;1.60;99.90;;;;;;5034090;28;20439;-80
2021/11/29 00:15:31;;;;;;;0.30;0.30;;;1.60;99.90;;;;;;5034185;28;20497;-79
2021/11/29 00:18:01;;;;;;;0.30;0.30;;;1.50;99.90;;;;;;5034432;28;20450;-80
2021/11/29 00:20:29;;;;;;;0.30;0.30;;;1.40;99.90;;;;;;5034177;28;20561;-80
2021/11/29 00:22:55;;;;;;;0.30;0.30;;;1.30;99.90;;;;;;5034123;28;20457;-80
2021/11/29 00:25:22;;;;;;;0.30;0.30;;;1.30;99.90;;;;;;5034111;28;20451;-80
2021/11/29 00:27:49;;;;;;;0.30;0.30;;;1.20;99.90;;;;;;5034056;28;20526;-81
2021/11/29 00:30:16;;;;;;;0.30;0.20;;;1.20;99.90;;;;;;5033703;28;20479;-81
2021/11/29 00:32:43;;;;;;;0.30;0.30;;;1.30;99.90;;;;;;5033515;28;20439;-81
2021/11/29 00:35:11;;;;;;;0.30;0.30;;;1.20;99.90;;;;;;5033753;28;20485;-81
2021/11/29 00:37:38;;;;;;;0.30;0.30;;;1.30;99.90;;;;;;5033953;28;20450;-81
2021/11/29 00:40:08;;;;;;;0.30;0.30;;;1.30;99.90;;;;;;5033503;28;20462;-80
2021/11/29 00:42:34;;;;;;;0.30;0.30;;;1.30;99.90;;;;;;5033497;28;20450;-80
2021/11/29 00:45:01;;;;;;;0.30;0.30;;;1.30;99.90;;;;;;5033393;28;20453;-80
2021/11/29 00:47:28;;;;;;;0.30;0.30;;;1.30;99.90;;;;;;5033742;28;20458;-80
2021/11/29 00:49:55;;;;;;;0.30;0.30;;;1.30;99.90;;;;;;5033434;28;20455;-80
2021/11/29 00:52:23;;;;;;;1.07;0.60;;;1.40;99.90;;;;;;5033641;28;20809;-80
2021/11/29 00:54:50;;;;;;;0.30;0.20;;;1.40;99.90;;;;;;5033611;28;21063;-80
2021/11/29 00:57:16;;;;;;;1.90;0.50;;;1.40;99.90;;;;;;5034365;28;20454;-80
2021/11/29 00:59:46;;;;;;;0.77;0.77;;;1.40;99.90;;;;;;5033434;28;20810;-81
2021/11/29 01:02:13;;;;;;;0.30;0.30;;;1.40;99.90;;;;;;5034432;28;20457;-81
2021/11/29 01:04:40;;;;;;;0.30;0.30;;;1.40;99.90;;;;;;5033548;28;20938;-81
2021/11/29 01:07:07;;;;;;;0.30;0.30;;;1.40;99.90;;;;;;5033220;28;20460;-80
2021/11/29 01:09:36;;;;;;;0.40;0.40;;;1.40;99.90;;;;;;5033403;28;20470;-80
2021/11/29 01:12:03;;;;;;;0.30;0.30;;;1.50;99.90;;;;;;5033574;28;20477;-81
2021/11/29 01:14:30;;;;;;;0.40;0.40;;;1.50;99.90;;;;;;5033339;28;20479;-80
2021/11/29 01:16:56;;;;;;;0.30;0.30;;;1.40;99.90;;;;;;5033452;28;20461;-80
2021/11/29 01:19:23;;;;;;;0.30;0.30;;;1.40;99.90;;;;;;5032935;28;20989;-80
2021/11/29 01:21:50;;;;;;;0.30;0.30;;;1.40;99.90;;;;;;5033577;28;20446;-80
2021/11/29 01:24:17;;;;;;;0.73;0.73;;;1.40;99.90;;;;;;5033268;28;20470;-80
2021/11/29 01:26:45;;;;;;;0.50;0.50;;;1.40;99.90;;;;;;5033518;28;20454;-80
2021/11/29 01:29:12;;;;;;;0.70;0.70;;;1.40;99.90;;;;;;5032907;28;20992;-81
2021/11/29 01:31:38;;;;;;;0.33;0.33;;;1.40;99.90;;;;;;5032872;28;20482;-81
2021/11/29 01:34:05;;;;;;;0.60;0.60;;;1.40;99.90;;;;;;5033276;28;20827;-81
2021/11/29 01:36:32;;;;;;;0.30;0.30;;;1.40;99.90;;;;;;5032897;28;20446;-81
2021/11/29 01:38:59;;;;;;;0.30;0.20;;;1.40;99.90;;;;;;5033121;28;20458;-80
2021/11/29 01:41:25;;;;;;;0.40;0.40;;;1.40;99.90;;;;;;5032827;28;20941;-80
2021/11/29 01:43:53;;;;;;;0.40;0.40;;;1.40;99.90;;;;;;5035031;28;20438;-81
2021/11/29 01:46:20;;;;;;;0.30;0.30;;;1.40;99.90;;;;;;5037022;28;20457;-80
2021/11/29 01:48:47;;;;;;;0.30;0.30;;;1.50;99.90;;;;;;5036765;28;20430;-81
2021/11/29 01:51:14;;;;;;;0.30;0.20;;;1.50;99.90;;;;;;5036926;28;20485;-80
2021/11/29 01:53:41;;;;;;;0.70;0.70;;;1.50;99.90;;;;;;5036624;28;20797;-80
2021/11/29 01:56:08;;;;;;;0.30;0.30;;;1.50;99.90;;;;;;5036822;28;20482;-80
2021/11/29 01:58:38;;;;;;;0.30;0.30;;;1.50;99.90;;;;;;5036942;28;20453;-80
2021/11/29 02:01:10;;;;;;;0.30;0.30;;;1.50;99.90;;;;;;5036453;28;20465;-80
2021/11/29 02:03:38;;;;;;;0.30;0.30;;;1.50;99.90;;;;;;5036849;28;20431;-80
2021/11/29 02:06:05;;;;;;;0.30;0.30;;;1.50;99.90;;;;;;5036719;28;20454;-80
2021/11/29 02:08:32;;;;;;;0.30;0.30;;;1.50;99.90;;;;;;5036695;28;20454;-80
2021/11/29 02:10:59;;;;;;;0.50;0.50;;;1.50;99.90;;;;;;5036228;28;20473;-80
2021/11/29 02:13:26;;;;;;;0.30;0.30;;;1.40;99.90;;;;;;5036326;28;20613;-80
2021/11/29 02:15:52;;;;;;;0.30;0.30;;;1.40;99.90;;;;;;5036397;28;20993;-80
2021/11/29 02:18:24;;;;;;;0.30;0.30;;;1.40;99.90;;;;;;5036487;28;20447;-80
2021/11/29 02:21:05;;;;;;;0.40;0.40;;;1.50;99.90;;;;;;5036111;28;20471;-80
2021/11/29 02:23:34;;;;;;;1.80;1.70;;;1.50;99.90;;;;;;5036159;28;20446;-80
2021/11/29 02:26:01;;;;;;;0.57;0.57;;;1.40;99.90;;;;;;5036071;28;20439;-80
2021/11/29 02:28:28;;;;;;;0.30;0.30;;;1.40;99.90;;;;;;5036030;28;20454;-80
2021/11/29 02:30:55;;;;;;;0.30;0.30;;;1.50;99.90;;;;;;5035964;28;20485;-80
2021/11/29 02:33:21;;;;;;;0.40;0.40;;;1.50;99.90;;;;;;5036276;28;20435;-80
2021/11/29 02:35:48;;;;;;;0.40;0.40;;;1.50;99.90;;;;;;5036147;28;20486;-79
2021/11/29 02:38:16;;;;;;;0.37;0.37;;;1.50;99.90;;;;;;5035804;28;20978;-79
2021/11/29 02:40:43;;;;;;;0.30;0.30;;;1.50;99.90;;;;;;5035980;28;20477;-80
2021/11/29 02:43:10;;;;;;;4.00;0.80;;;1.50;99.90;;;;;;5035714;28;20451;-80
2021/11/29 02:45:37;;;;;;;0.30;0.30;;;1.50;99.90;;;;;;5035745;28;20445;-79
2021/11/29 02:48:04;;;;;;;1.30;1.30;;;1.60;99.90;;;;;;5035677;28;20853;-79
2021/11/29 02:50:35;;;;;;;0.30;0.30;;;1.60;99.90;;;;;;5035632;28;20465;-80
2021/11/29 02:53:03;;;;;;;0.53;0.53;;;1.50;99.90;;;;;;5035930;28;20426;-79
2021/11/29 02:55:31;;;;;;;0.30;0.30;;;1.50;99.90;;;;;;5035360;28;20491;-79
2021/11/29 02:57:58;;;;;;;0.30;0.30;;;1.40;99.90;;;;;;5035738;28;20461;-79
2021/11/29 03:00:25;;;;;;;0.30;0.30;;;1.40;99.90;;;;;;5036311;28;20450;-80
2021/11/29 03:03:03;;;;;;;0.40;0.33;;;1.40;99.90;;;;;;5035619;28;20455;-79
2021/11/29 03:05:30;;;;;;;0.30;0.30;;;1.40;99.90;;;;;;5035520;28;20910;-80
2021/11/29 03:07:57;;;;;;;0.30;0.20;;;1.40;99.90;;;;;;5035569;28;20455;-80
2021/11/29 03:10:24;;;;;;;0.30;0.30;;;1.40;99.90;;;;;;5035256;28;20474;-79
2021/11/29 03:12:53;;;;;;;0.30;0.30;;;1.40;99.90;;;;;;5035433;28;20450;-79
2021/11/29 03:15:20;;;;;;;0.40;0.40;;;1.40;99.90;;;;;;5035370;28;20501;-79
2021/11/29 03:17:47;;;;;;;0.30;0.30;;;1.50;99.90;;;;;;5035353;28;20458;-79
2021/11/29 03:20:14;;;;;;;0.30;0.30;;;1.40;99.90;;;;;;5035040;28;20454;-79
2021/11/29 03:22:41;;;;;;;0.30;0.30;;;1.40;99.90;;;;;;5035300;28;20446;-79
2021/11/29 03:25:10;;;;;;;0.60;0.50;;;1.40;99.90;;;;;;5035252;28;20450;-79
2021/11/29 03:27:37;;;;;;;0.30;0.20;;;1.40;99.90;;;;;;5034920;28;20446;-79
2021/11/29 03:30:07;;;;;;;0.30;0.20;;;1.40;99.90;;;;;;5035269;28;20482;-79
2021/11/29 03:32:36;;;;;;;0.30;0.30;;;1.40;99.90;;;;;;5034863;28;20485;-79
2021/11/29 03:35:04;;;;;;;1.23;0.67;;;1.30;99.90;;;;;;5034983;28;20501;-79
2021/11/29 03:37:31;;;;;;;0.30;0.30;;;1.30;99.90;;;;;;5034982;28;20493;-79
2021/11/29 03:39:58;;;;;;;0.30;0.30;;;1.30;99.90;;;;;;5034908;28;20462;-80
2021/11/29 03:42:25;;;;;;;0.60;0.60;;;1.30;99.90;;;;;;5034940;28;20451;-80
2021/11/29 03:44:52;;;;;;;1.70;1.70;;;1.30;99.90;;;;;;5034860;28;20458;-80
2021/11/29 03:47:20;;;;;;;0.30;0.30;;;1.30;99.90;;;;;;5035658;28;20453;-80
2021/11/29 03:49:46;;;;;;;0.90;0.90;;;1.30;99.90;;;;;;5034743;28;20493;-81
2021/11/29 03:52:13;;;;;;;0.30;0.30;;;1.40;99.90;;;;;;5034812;28;20907;-80
2021/11/29 03:54:40;;;;;;;0.43;0.43;;;1.40;99.90;;;;;;5034631;28;20455;-80
2021/11/29 03:57:07;;;;;;;0.53;0.53;;;1.40;99.90;;;;;;5034705;28;20477;-80
2021/11/29 03:59:35;;;;;;;0.50;0.50;;;1.40;99.90;;;;;;5034572;28;20498;-80
2021/11/29 04:02:02;;;;;;;0.40;0.40;;;1.40;99.90;;;;;;5034584;28;20545;-80
2021/11/29 04:04:30;;;;;;;1.60;1.50;;;1.40;99.90;;;;;;5034542;28;20455;-81
2021/11/29 04:06:57;;;;;;;0.30;0.20;;;1.40;99.90;;;;;;5033718;28;20447;-80
2021/11/29 04:09:23;;;;;;;0.30;0.23;;;1.40;99.90;;;;;;5034074;28;20470;-80
2021/11/29 04:11:50;;;;;;;0.70;0.70;;;1.40;99.90;;;;;;5034647;28;20451;-80
2021/11/29 04:14:17;;;;;;;0.70;0.70;;;1.40;99.90;;;;;;5034998;28;20808;-80
2021/11/29 04:16:43;;;;;;;0.30;0.20;;;1.40;99.90;;;;;;5034206;28;20482;-80
2021/11/29 04:19:10;;;;;;;0.80;0.80;;;1.40;99.90;;;;;;5034178;28;20474;-80
2021/11/29 04:21:38;;;;;;;0.30;0.30;;;1.30;99.90;;;;;;5034166;28;20446;-80
2021/11/29 04:24:06;;;;;;;0.30;0.30;;;1.30;99.90;;;;;;5033929;28;20795;-79
2021/11/29 04:26:33;;;;;;;1.47;0.47;;;1.40;99.90;;;;;;5034072;28;20488;-80
2021/11/29 04:29:06;;;;;;;0.30;0.30;;;1.40;99.90;;;;;;5033686;28;20938;-80
2021/11/29 04:31:33;;;;;;;0.40;0.40;;;1.40;99.90;;;;;;5033728;28;20489;-79
2021/11/29 04:33:59;;;;;;;0.30;0.30;;;1.40;99.90;;;;;;5033640;28;20942;-80
2021/11/29 04:36:26;;;;;;;0.37;0.37;;;1.40;99.90;;;;;;5033932;28;20486;-80
2021/11/29 04:38:54;;;;;;;0.37;0.37;;;1.40;99.90;;;;;;5033786;28;20529;-80
2021/11/29 04:41:21;;;;;;;0.30;0.20;;;1.50;99.90;;;;;;5033852;28;20462;-80
2021/11/29 04:43:48;;;;;;;0.53;0.53;;;1.40;99.90;;;;;;5033815;28;20811;-80
2021/11/29 04:46:14;;;;;;;2.23;0.70;;;1.50;99.90;;;;;;5033828;28;20460;-80
2021/11/29 04:48:41;;;;;;;0.30;0.30;;;1.50;99.90;;;;;;5033392;28;20795;-80
2021/11/29 04:51:08;;;;;;;0.30;0.30;;;1.50;99.90;;;;;;5033610;28;20470;-80
2021/11/29 04:53:35;;;;;;;0.30;0.30;;;1.50;99.90;;;;;;5033668;28;20457;-80
2021/11/29 04:56:04;;;;;;;1.93;1.83;;;1.50;99.90;;;;;;5033540;28;20569;-80
2021/11/29 04:58:31;;;;;;;0.30;0.30;;;1.50;99.90;;;;;;5033756;28;20450;-80
2021/11/29 05:00:58;;;;;;;0.30;0.30;;;1.50;99.90;;;;;;5033254;28;20969;-80
2021/11/29 05:03:25;;;;;;;0.40;0.40;;;1.50;99.90;;;;;;5033331;28;20435;-80
2021/11/29 05:05:51;;;;;;;0.63;0.63;;;1.50;99.90;;;;;;5033479;28;20454;-80
2021/11/29 05:08:18;;;;;;;0.30;0.30;;;1.50;99.90;;;;;;5033366;28;20458;-79
2021/11/29 05:10:45;;;;;;;0.50;0.50;;;1.50;99.90;;;;;;5033350;28;20462;-80
2021/11/29 05:13:14;;;;;;;0.40;0.40;;;1.50;99.90;;;;;;5033157;28;20442;-80
2021/11/29 05:15:40;;;;;;;0.30;0.30;;;1.60;99.90;;;;;;5033370;28;20846;-80
2021/11/29 05:18:07;;;;;;;0.50;0.50;;;1.60;99.90;;;;;;5033238;28;20447;-80
2021/11/29 05:20:34;;;;;;;0.30;0.30;;;1.50;99.90;;;;;;5033280;28;20466;-80
2021/11/29 05:23:01;;;;;;;0.30;0.30;;;1.60;99.90;;;;;;5033043;28;20443;-80
2021/11/29 05:25:28;;;;;;;0.63;0.63;;;1.60;99.90;;;;;;5032980;28;20938;-81
2021/11/29 05:27:54;;;;;;;0.40;0.40;;;1.60;99.90;;;;;;5033046;28;20443;-80
2021/11/29 05:30:23;;;;;;;0.60;0.60;;;1.50;99.90;;;;;;5033183;28;20477;-80
2021/11/29 05:32:51;;;;;;;0.30;0.20;;;1.50;99.90;;;;;;5033010;28;20493;-80
2021/11/29 05:35:18;;;;;;;0.33;0.30;;;1.40;99.90;;;;;;5033315;28;20455;-80
2021/11/29 05:37:44;;;;;;;1.50;0.50;;;1.50;99.90;;;;;;5032841;28;20922;-80
2021/11/29 05:40:12;;;;;;;0.30;0.30;;;1.60;99.90;;;;;;5033102;28;20462;-80
2021/11/29 05:42:40;;;;;;;1.60;1.00;;;1.50;99.90;;;;;;5033107;28;20454;-80
2021/11/29 05:45:08;;;;;;;0.30;0.30;;;1.50;99.90;;;;;;5033162;28;20458;-80
2021/11/29 05:47:37;;;;;;;0.57;0.57;;;1.40;99.90;;;;;;5032987;28;20940;-80
2021/11/29 05:50:04;;;;;;;0.30;0.30;;;1.50;99.90;;;;;;5033191;28;20470;-80
2021/11/29 05:52:31;;;;;;;0.63;0.63;;;1.50;99.90;;;;;;5032765;28;20946;-80
2021/11/29 05:54:58;;;;;;;0.30;0.30;;;1.50;99.90;;;;;;5033016;28;20801;-80
2021/11/29 05:57:25;;;;;;;0.30;0.20;;;1.50;99.90;;;;;;5032680;28;20493;-80
2021/11/29 05:59:52;;;;;;;0.30;0.30;;;1.50;99.90;;;;;;5032903;28;20471;-80
2021/11/29 06:02:18;;;;;;;0.30;0.20;;;1.40;99.90;;;;;;5032983;28;20451;-80
2021/11/29 06:04:46;;;;;;;0.40;0.40;;;1.50;99.90;;;;;;5032944;28;20446;-80
2021/11/29 06:07:13;;;;;;;0.30;0.30;;;1.50;99.90;;;;;;5032960;28;20450;-80
2021/11/29 06:09:40;;;;;;;0.30;0.20;;;1.50;99.90;;;;;;5032508;28;20843;-80
2021/11/29 06:12:07;;;;;;;0.50;0.50;;;1.50;99.90;;;;;;5032791;28;20459;-80
2021/11/29 06:14:34;;;;;;;1.00;0.63;;;1.40;99.90;;;;;;5032861;28;20451;-80
2021/11/29 06:17:01;;;;;;;0.30;0.30;;;1.50;99.90;;;;;;5032728;28;20482;-80
2021/11/29 06:19:29;;;;;;;0.60;0.60;;;1.50;99.90;;;;;;5032678;28;20471;-80
2021/11/29 06:21:57;;;;;;;0.30;0.30;;;1.40;99.90;;;;;;5032799;28;20454;-80
2021/11/29 06:24:24;;;;;;;0.40;0.40;;;1.40;99.90;;;;;;5032461;28;20964;-80
2021/11/29 06:26:51;;;;;;;0.30;0.20;;;1.40;99.90;;;;;;5032510;28;20439;-80
2021/11/29 06:29:17;;;;;;;0.30;0.30;;;1.40;99.90;;;;;;5033514;28;20473;-80
2021/11/29 06:31:44;;;;;;;0.30;0.30;;;1.40;99.90;;;;;;5036021;28;20486;-80
2021/11/29 06:34:11;;;;;;;0.30;0.30;;;1.50;99.90;;;;;;5036193;28;20454;-80
2021/11/29 06:36:38;;;;;;;0.70;0.70;;;1.40;99.90;;;;;;5036112;28;20482;-80
2021/11/29 06:39:06;;;;;;;0.57;0.57;;;1.30;99.90;;;;;;5036097;28;20457;-80
2021/11/29 06:41:33;;;;;;;0.30;0.20;;;1.30;99.90;;;;;;5036112;28;20791;-80
2021/11/29 06:43:59;;;;;;;0.30;0.20;;;1.20;99.90;;;;;;5036027;28;20458;-80
2021/11/29 06:46:26;;;;;;;0.40;0.40;;;1.20;99.90;;;;;;5035795;28;20933;-80
2021/11/29 06:48:53;;;;;;;0.67;0.37;;;1.20;99.90;;;;;;5038115;28;20443;-80
2021/11/29 06:51:23;;;;;;;0.30;0.30;;;1.10;99.90;;;;;;5035937;28;20454;-80
2021/11/29 06:53:50;;;;;;;0.30;0.20;;;1.10;99.90;;;;;;5035973;28;20430;-80
2021/11/29 06:56:19;;;;;;;0.40;0.40;;;1.10;99.90;;;;;;5035835;28;20532;-80
2021/11/29 06:58:45;;;;;;;0.30;0.30;;;1.10;99.90;;;;;;5035817;28;20814;-80
2021/11/29 07:01:12;;;;;;;0.40;0.40;;;1.10;99.90;;;;;;5035414;28;20939;-80
2021/11/29 07:03:39;;;;;;;0.30;0.30;;;1.10;99.90;;;;;;5035383;28;20950;-80
2021/11/29 07:06:06;;;;;;;0.30;0.30;;;1.10;99.90;;;;;;5035620;28;20451;-80
2021/11/29 07:08:32;;;;;;;0.87;0.50;;;1.20;99.90;;;;;;5035304;28;20922;-81
2021/11/29 07:10:59;;;;;;;0.70;0.70;;;1.10;99.90;;;;;;5035259;28;20832;-80
2021/11/29 07:13:28;;;;;;;0.30;0.30;;;1.10;99.90;;;;;;5035248;28;20930;-80
2021/11/29 07:15:56;;;;;;;0.30;0.30;;;1.10;99.90;;;;;;5035386;28;20455;-80
2021/11/29 07:18:23;;;;;;;0.60;0.47;;;1.20;99.90;;;;;;5035694;28;20447;-80
2021/11/29 07:20:50;;;;;;;0.30;0.30;;;1.20;99.90;;;;;;5034979;28;20474;-80
2021/11/29 07:23:17;;;;;;;0.30;0.30;;;1.20;99.90;;;;;;5035596;28;20772;-80
2021/11/29 07:25:44;;;;;;;0.60;0.60;;;1.20;99.90;;;;;;5035005;28;20493;-80
2021/11/29 07:28:11;;;;;;;0.40;0.40;;;1.30;99.90;;;;;;5035325;28;20761;-80
2021/11/29 07:30:39;;;;;;;0.30;0.30;;;1.40;99.90;;;;;;5034727;28;20820;-79
2021/11/29 07:33:07;;;;;;;0.40;0.40;;;1.40;99.90;;;;;;5035289;28;20438;-80
2021/11/29 07:35:34;;;;;;;0.30;0.30;;;1.40;99.90;;;;;;5035108;28;20439;-80
2021/11/29 07:38:01;;;;;;;0.80;0.80;;;1.40;99.90;;;;;;5035015;28;20474;-80
2021/11/29 07:40:29;;;;;;;0.30;0.20;;;1.30;99.90;;;;;;5033885;28;20478;-79
2021/11/29 07:42:58;;;;;;;0.33;0.33;;;1.30;99.90;;;;;;5034751;28;20614;-79
2021/11/29 07:45:25;;;;;;;0.30;0.20;;;1.40;99.90;;;;;;5034926;28;20439;-79
2021/11/29 07:47:53;;;;;;;0.30;0.30;;;1.40;99.90;;;;;;5035228;28;20443;-79
2021/11/29 07:50:21;;;;;;;0.30;0.20;;;1.40;99.90;;;;;;5034899;28;20479;-79
2021/11/29 07:52:49;;;;;;;0.40;0.40;;;1.40;99.90;;;;;;5034830;28;20439;-79
2021/11/29 07:55:21;;;;;;;0.30;0.30;;;1.40;99.90;;;;;;5034938;28;20419;-80
2021/11/29 07:57:48;;;;;;;0.40;0.40;;;1.50;99.90;;;;;;5034327;28;20993;-80
2021/11/29 08:00:19;;;;;;;0.50;0.47;;;1.40;99.90;;;;;;5034560;28;20466;-79
2021/11/29 08:02:46;;;;;;;0.30;0.30;;;1.40;99.90;;;;;;5034358;28;20446;-80
2021/11/29 08:05:14;;;;;;;0.30;0.30;;;1.40;99.90;;;;;;5034168;28;20941;-79
2021/11/29 08:07:41;;;;;;;0.50;0.47;;;1.30;99.90;;;;;;5034739;28;20434;-79
2021/11/29 08:10:09;;;;;;;0.30;0.30;;;1.30;99.90;;;;;;5034057;28;20459;-80
2021/11/29 08:12:36;;;;;;;0.30;0.20;;;1.30;99.90;;;;;;5034096;28;20913;-80
2021/11/29 08:15:03;;;;;;;0.30;0.30;;;1.30;99.90;;;;;;5034330;28;20450;-80
2021/11/29 08:17:30;;;;;;;0.30;0.30;;;1.40;99.90;;;;;;5034233;28;20489;-79
2021/11/29 08:19:57;;;;;;;0.30;0.20;;;1.40;99.90;;;;;;5033825;28;20825;-80
2021/11/29 08:22:25;;;;;;;0.30;0.30;;;1.50;99.90;;;;;;5034208;28;20435;-79
2021/11/29 08:24:51;;;;;;;0.30;0.30;;;1.60;99.90;;;;;;5034567;28;20458;-79
2021/11/29 08:27:18;;;;;;;0.63;0.47;;;1.60;99.90;;;;;;5034133;28;20446;-80
2021/11/29 08:29:46;;;;;;;0.30;0.30;;;1.60;99.90;;;;;;5034000;28;20470;-79
2021/11/29 08:32:12;;;;;;;0.30;0.30;;;1.70;99.90;;;;;;5033811;28;20487;-79
2021/11/29 08:34:40;;;;;;;0.30;0.30;;;1.70;99.90;;;;;;5033951;28;20457;-80
2021/11/29 08:37:07;;;;;;;0.30;0.30;;;1.80;99.90;;;;;;5033672;28;20475;-79
2021/11/29 08:39:36;;;;;;;0.43;0.43;;;1.80;99.90;;;;;;5034289;28;20458;-80
2021/11/29 08:42:04;;;;;;;0.30;0.23;;;1.80;99.90;;;;;;5034109;28;20446;-79
2021/11/29 08:44:31;;;;;;;1.23;0.60;;;1.80;99.90;;;;;;5034200;28;20446;-80
2021/11/29 08:46:58;;;;;;;1.00;0.50;;;1.80;99.90;;;;;;5033844;28;20450;-79
2021/11/29 08:49:27;;;;;;;0.30;0.30;;;1.80;99.90;;;;;;5033441;28;20466;-79
2021/11/29 08:51:56;;;;;;;0.30;0.20;;;1.80;99.90;;;;;;5034060;28;20564;-79
2021/11/29 08:54:24;;;;;;;0.33;0.30;;;1.80;99.90;;;;;;5033683;28;20442;-79
2021/11/29 08:56:52;;;;;;;0.30;0.20;;;1.70;99.90;;;;;;5033560;28;20493;-79
2021/11/29 08:59:21;;;;;;;0.30;0.30;;;1.70;99.90;;;;;;5033618;28;20516;-79
2021/11/29 09:01:50;;;;;;;0.30;0.27;;;1.70;99.90;;;;;;5033295;28;20438;-79
2021/11/29 09:04:17;;;;;;;0.30;0.20;;;1.70;99.90;;;;;;5033325;28;20842;-79
2021/11/29 09:06:43;;;;;;;0.40;0.33;;;1.90;99.90;;;;;;5033571;28;20445;-79
2021/11/29 09:09:11;;;;;;;0.30;0.20;;;2.20;99.90;;;;;;5033389;28;20846;-79
2021/11/29 09:11:38;;;;;;;0.40;0.40;;;2.70;99.90;;;;;;5033166;28;20455;-79
2021/11/29 09:14:06;;;;;;;0.30;0.20;;;3.50;99.90;;;;;;5033418;28;20455;-79
2021/11/29 09:16:33;;;;;;;0.67;0.50;;;4.30;99.90;;;;;;5033241;28;20461;-79
2021/11/29 09:19:00;;;;;;;0.30;0.23;;;4.90;99.90;;;;;;5032970;28;20950;-79
2021/11/29 09:21:27;;;;;;;0.30;0.27;;;5.50;99.90;;;;;;5033193;28;20416;-79
2021/11/29 09:23:54;;;;;;;0.30;0.20;;;6.00;99.90;;;;;;5033410;28;20431;-79
2021/11/29 09:26:21;;;;;;;0.40;0.30;;;6.40;99.90;;;;;;5033081;28;20880;-79
2021/11/29 09:28:48;;;;;;;0.47;0.30;;;6.70;99.90;;;;;;5033371;28;20427;-78
2021/11/29 09:31:16;;;;;;;0.30;0.27;;;6.90;99.90;;;;;;5032863;28;20485;-78
2021/11/29 09:33:43;;;;;;;0.30;0.30;;;7.20;99.90;;;;;;5032934;28;20439;-78
2021/11/29 09:36:11;;;;;;;0.37;0.27;;;7.40;99.90;;;;;;5033286;28;20437;-78
2021/11/29 09:38:38;;;;;;;0.30;0.20;;;7.80;99.90;;;;;;5032863;28;20973;-78
2021/11/29 09:41:06;;;;;;;0.30;0.30;;;8.60;99.90;;;;;;5033124;28;20463;-78
2021/11/29 09:43:34;;;;;;;0.40;0.30;;;9.60;99.90;;;;;;5033969;28;20431;-77
2021/11/29 09:46:01;;;;;;;0.40;0.30;;;10.80;99.90;;;;;;5033138;28;20794;-78
2021/11/29 09:48:30;;;;;;;0.30;0.30;;;11.90;99.90;;;;;;5033049;28;20509;-78
2021/11/29 09:50:57;;;;;;;0.40;0.37;;;12.80;99.90;;;;;;5033014;28;20463;-77
2021/11/29 09:53:25;;;;;;;2.20;0.60;;;13.70;98.90;;;;;;5033269;28;20435;-78
2021/11/29 09:55:53;;;;;;;1.00;0.40;;;14.30;94.50;;;;;;5033083;28;20439;-78
2021/11/29 09:58:20;;;;;;;0.40;0.40;;;14.90;91.10;;;;;;5033044;28;20821;-78
2021/11/29 10:00:49;;;;;;;1.50;0.60;;;15.00;89.30;;;;;;5032995;28;20467;-78
2021/11/29 10:03:16;;;;;;;0.43;0.40;;;14.60;85.70;;;;;;5032940;28;20431;-78
2021/11/29 10:05:45;;;;;;;0.40;0.30;;;13.90;87.20;;;;;;5036200;28;20439;-78
2021/11/29 10:08:20;;;;;;;0.93;0.53;;;13.00;88.90;;;;;;5036788;28;20411;-78
2021/11/29 10:10:48;;;;;;;0.50;0.30;;;11.80;90.70;;;;;;5036300;28;21056;-78
2021/11/29 10:13:15;;;;;;;1.63;0.40;;;10.70;91.90;;;;;;5036329;28;20832;-79
2021/11/29 10:15:43;;;;;;;0.40;0.40;;;10.00;94.40;;;;;;5036407;28;20407;-78
2021/11/29 10:18:13;;;;;;;0.90;0.50;;;9.00;96.30;;;;;;5036555;28;20502;-78
2021/11/29 10:20:54;;;;;;;1.07;0.63;;;8.60;97.90;;;;;;5036151;28;20466;-78
2021/11/29 10:23:31;;;;;;;1.17;0.50;;;8.30;99.90;;;;;;5036472;28;20489;-78
2021/11/29 10:25:59;;;;;;;0.30;0.20;;;7.90;99.80;;;;;;5036421;28;20430;-78
2021/11/29 10:28:29;;;;;;;0.30;0.20;;;7.60;99.90;;;;;;5036491;28;20422;-79
2021/11/29 10:31:16;;;;;;;0.40;0.40;;;7.40;99.90;;;;;;5035864;28;20478;-80
2021/11/29 10:33:53;;;;;;;0.30;0.30;;;7.20;99.90;;;;;;5036517;28;20441;-80
2021/11/29 10:36:22;;;;;;;1.73;1.63;;;7.10;99.90;;;;;;5036279;28;20513;-80
2021/11/29 10:38:52;;;;;;;0.30;0.30;;;6.90;99.90;;;;;;5035867;28;21000;-80
2021/11/29 10:41:25;;;;;;;0.40;0.30;;;6.70;99.90;;;;;;5035885;28;20914;-80
2021/11/29 10:43:52;;;;;;;0.30;0.30;;;6.40;99.90;;;;;;5036134;28;20411;-80
2021/11/29 10:46:22;;;;;;;0.80;0.40;;;6.30;99.90;;;;;;5036092;28;20439;-80
2021/11/29 10:48:49;;;;;;;0.30;0.20;;;6.20;99.90;;;;;;5036296;28;20442;-81
2021/11/29 10:51:18;;;;;;;0.30;0.30;;;6.00;99.90;;;;;;5035659;28;20447;-80
2021/11/29 10:53:49;;;;;;;0.30;0.20;;;5.90;99.90;;;;;;5035919;28;20818;-80
2021/11/29 10:56:15;;;;;;;0.30;0.30;;;5.80;99.90;;;;;;5035907;28;20431;-80
2021/11/29 10:58:44;;;;;;;0.40;0.30;;;5.80;99.90;;;;;;5035856;28;20470;-80
2021/11/29 11:01:12;;;;;;;0.30;0.20;;;5.70;99.90;;;;;;5035790;28;20501;-80
2021/11/29 11:03:56;;;;;;;0.30;0.20;;;5.60;99.90;;;;;;5035431;28;20439;-81
2021/11/29 11:06:29;;;;;;;0.30;0.30;;;5.60;99.90;;;;;;5035721;28;20435;-80
2021/11/29 11:08:57;;;;;;;0.30;0.20;;;5.40;99.90;;;;;;5035264;28;20778;-81
2021/11/29 11:11:35;;;;;;;0.30;0.30;;;5.30;99.90;;;;;;5035607;28;20442;-81
2021/11/29 11:14:06;;;;;;;0.50;0.30;;;5.20;99.90;;;;;;5035433;28;20415;-81
2021/11/29 11:16:40;;;;;;;0.70;0.70;;;5.10;99.90;;;;;;5035677;28;20443;-81
2021/11/29 11:19:11;;;;;;;0.30;0.30;;;5.00;99.90;;;;;;5035631;28;20470;-80
2021/11/29 11:21:38;;;;;;;0.40;0.40;;;4.90;99.90;;;;;;5035550;28;20461;-81
2021/11/29 11:24:27;;;;;;;0.30;0.30;;;4.90;99.90;;;;;;5035430;28;20819;-81
2021/11/29 11:26:57;;;;;;;0.40;0.40;;;5.00;99.90;;;;;;5035294;28;20466;-81
2021/11/29 11:29:40;;;;;;;0.30;0.30;;;4.90;99.90;;;;;;5035215;28;20509;-80
2021/11/29 11:32:22;;;;;;;0.30;0.30;;;5.00;99.90;;;;;;5034943;28;20493;-81
2021/11/29 11:34:50;;;;;;;0.30;0.30;;;5.10;99.90;;;;;;5034858;28;20792;-81
2021/11/29 11:37:19;;;;;;;0.30;0.20;;;5.10;99.90;;;;;;5035076;28;20434;-81
2021/11/29 11:39:49;;;;;;;0.30;0.30;;;5.10;99.90;;;;;;5035457;28;20497;-81
2021/11/29 11:42:17;;;;;;;0.30;0.30;;;4.80;99.90;;;;;;5034812;28;20407;-80
2021/11/29 11:44:44;;;;;;;0.50;0.50;;;4.80;99.90;;;;;;5034977;28;20434;-80
2021/11/29 11:47:12;;;;;;;0.40;0.30;;;4.80;99.90;;;;;;5034992;28;20412;-81
2021/11/29 11:49:40;;;;;;;0.30;0.30;;;4.80;99.90;;;;;;5034888;28;20471;-80
2021/11/29 11:52:09;;;;;;;0.30;0.20;;;4.80;99.90;;;;;;5034518;28;20837;-82
2021/11/29 11:54:40;;;;;;;0.30;0.30;;;4.70;99.90;;;;;;5035164;28;20438;-80
2021/11/29 11:57:09;;;;;;;0.30;0.30;;;4.60;99.90;;;;;;5034709;28;20835;-80
2021/11/29 11:59:47;;;;;;;0.40;0.40;;;4.60;99.90;;;;;;5034559;28;20517;-80
2021/11/29 12:02:17;;;;;;;0.30;0.20;;;4.50;99.90;;;;;;5034642;28;20434;-80
2021/11/29 12:04:44;;;;;;;0.30;0.30;;;4.40;99.90;;;;;;5034550;28;20439;-81
2021/11/29 12:07:11;;;;;;;0.30;0.20;;;4.40;99.90;;;;;;5034415;28;20930;-80
2021/11/29 12:09:42;;;;;;;0.30;0.30;;;4.40;99.90;;;;;;5034467;28;20455;-80
2021/11/29 12:12:10;;;;;;;0.30;0.30;;;4.40;99.90;;;;;;5034508;28;20531;-81
2021/11/29 12:14:37;;;;;;;0.30;0.27;;;4.30;99.90;;;;;;5034119;28;20438;-80
2021/11/29 12:17:18;;;;;;;0.30;0.30;;;4.30;99.90;;;;;;5034119;28;20454;-81
2021/11/29 12:19:47;;;;;;;0.30;0.30;;;4.30;99.90;;;;;;5034235;28;20467;-80
2021/11/29 12:22:33;;;;;;;0.30;0.30;;;4.20;99.90;;;;;;5034095;28;20941;-80
2021/11/29 12:25:05;;;;;;;0.30;0.30;;;4.20;99.90;;;;;;5034008;28;20997;-80
2021/11/29 12:27:44;;;;;;;0.30;0.30;;;4.30;99.90;;;;;;5033590;28;20431;-81
2021/11/29 12:30:17;;;;;;;0.30;0.20;;;4.30;99.90;;;;;;5034079;28;20467;-80
2021/11/29 12:32:55;;;;;;;0.30;0.20;;;4.30;99.90;;;;;;5033947;28;20481;-80
2021/11/29 12:35:35;;;;;;;0.40;0.40;;;4.30;99.90;;;;;;5034426;28;20895;-80
2021/11/29 12:38:05;;;;;;;0.30;0.20;;;4.30;99.90;;;;;;5033944;28;20458;-80
2021/11/29 12:40:45;;;;;;;0.30;0.30;;;4.30;99.90;;;;;;5033848;28;20474;-81
2021/11/29 12:43:30;;;;;;;0.30;0.20;;;4.20;99.90;;;;;;5033994;28;20435;-80
2021/11/29 12:46:19;;;;;;;2.30;0.40;;;4.20;99.90;;;;;;5033560;28;20438;-80
2021/11/29 12:48:46;;;;;;;0.30;0.20;;;4.00;99.90;;;;;;5033837;28;20796;-80
2021/11/29 12:51:13;;;;;;;0.40;0.40;;;4.00;99.90;;;;;;5033688;28;20493;-80
2021/11/29 12:53:42;;;;;;;0.30;0.20;;;4.00;99.90;;;;;;5033735;28;20435;-80
2021/11/29 12:56:21;;;;;;;0.30;0.20;;;4.00;99.90;;;;;;5033701;28;20447;-81
2021/11/29 12:58:58;;;;;;;3.20;0.80;;;4.10;99.90;;;;;;5033626;28;20461;-80
2021/11/29 13:01:33;;;;;;;0.60;0.40;;;4.10;99.90;;;;;;5033663;28;20517;-80
2021/11/29 13:04:00;;;;;;;0.40;0.40;;;4.00;99.90;;;;;;5033708;28;20862;-80